METAR Data
IDs: Format: Raw Decoded Include TAF

Data at: 1827 UTC 06 Jul 2020

UGKO 061800Z 28004KT CAVOK 25/22 Q1004 NOSIG
UGKO 061730Z 28005KT CAVOK 26/22 Q1004 NOSIG
UGKO 061700Z 28007KT CAVOK 27/22 Q1003 NOSIG
UGKO 061630Z 27008KT CAVOK 28/22 Q1003 NOSIG
UGKO 061600Z 28010KT CAVOK 29/22 Q1003 NOSIG
UGKO 061530Z 27010KT CAVOK 30/22 Q1002 NOSIG
UGKO 061500Z 28013KT CAVOK 31/23 Q1002 NOSIG
UGKO 061430Z 27014KT CAVOK 31/22 Q1002 NOSIG
UGKO 061400Z 28015KT CAVOK 32/22 Q1002 NOSIG
UGKO 061330Z 26016KT CAVOK 33/22 Q1002 NOSIG
UGKO 061300Z 25010KT CAVOK 35/22 Q1001 NOSIG
UGKO 061230Z 07015KT 040V100 CAVOK 39/07 Q1001 NOSIG
UGKO 061200Z 08015KT 050V110 CAVOK 40/07 Q1001 NOSIG
UGKO 061130Z 09015KT CAVOK 39/07 Q1002 NOSIG
UGKO 061100Z 08017KT CAVOK 39/08 Q1002 NOSIG
UGKO 061030Z 08018KT 050V110 CAVOK 39/08 Q1002 NOSIG
UGKO 061000Z 08018KT CAVOK 38/08 Q1002 NOSIG
UGKO 060930Z 10016G27KT 070V130 CAVOK 38/08 Q1003 NOSIG
UGKO 060900Z 09017G29KT 040V120 CAVOK 38/08 Q1003 NOSIG
UGKO 060830Z 09016KT 060V120 CAVOK 37/08 Q1003 NOSIG
UGKO 060800Z 10013KT 060V130 CAVOK 36/08 Q1004 NOSIG
UGKO 060730Z 10012KT 070V140 CAVOK 36/12 Q1004 NOSIG
UGKO 060700Z VRB02KT CAVOK 32/18 Q1004 NOSIG
UGKO 060630Z 12004KT 070V200 CAVOK 31/18 Q1005 NOSIG